Time;durP1;ratioP1;P1;durP2;ratioP2;P2;SDS_P1;SDS_P2;PMS_P1;PMS_P2;Temp;Humidity;BMP_temperature;BMP_pressure;BME280_temperature;BME280_humidity;BME280_pressure;Samples;Min_cycle;Max_cycle;Signal;HPM_P1;HPM_P2
2022/10/27 00:01:30;;;;;;;8.27;4.07;;;;;;;;;;5122697;28;20224;-69
2022/10/27 00:03:57;;;;;;;5.70;4.10;;;;;;;;;;5123087;28;20195;-69
2022/10/27 00:06:23;;;;;;;9.13;3.70;;;;;;;;;;5122896;28;20384;-69
2022/10/27 00:08:50;;;;;;;8.73;4.20;;;;;;;;;;5122824;28;20195;-69
2022/10/27 00:11:16;;;;;;;6.82;3.75;;;;;;;;;;5122910;28;20252;-68
2022/10/27 00:13:44;;;;;;;7.07;3.97;;;;;;;;;;5122675;28;20371;-68
2022/10/27 00:16:14;;;;;;;9.60;3.72;;;;;;;;;;5122677;28;20400;-68
2022/10/27 00:18:40;;;;;;;6.22;4.35;;;;;;;;;;5122056;28;20222;-68
2022/10/27 00:21:08;;;;;;;7.80;4.20;;;;;;;;;;5122756;28;20219;-69
2022/10/27 00:23:34;;;;;;;7.38;4.97;;;;;;;;;;5122663;28;20203;-69
2022/10/27 00:26:01;;;;;;;6.78;4.07;;;;;;;;;;5122660;28;20195;-69
2022/10/27 00:28:28;;;;;;;5.95;3.78;;;;;;;;;;5122168;28;20221;-69
2022/10/27 00:30:59;;;;;;;9.55;4.25;;;;;;;;;;5122402;28;20197;-69
2022/10/27 00:33:25;;;;;;;10.45;4.18;;;;;;;;;;5122660;28;20207;-69
2022/10/27 00:35:51;;;;;;;7.80;4.50;;;;;;;;;;5122557;28;20524;-69
2022/10/27 00:38:18;;;;;;;8.10;5.05;;;;;;;;;;5122122;28;20226;-69
2022/10/27 00:40:44;;;;;;;9.88;4.10;;;;;;;;;;5122429;28;20545;-69
2022/10/27 00:43:23;;;;;;;10.75;4.20;;;;;;;;;;5122766;28;20209;-69
2022/10/27 00:45:50;;;;;;;10.75;4.57;;;;;;;;;;5122234;28;20207;-69
2022/10/27 00:48:17;;;;;;;6.15;3.78;;;;;;;;;;5122035;28;20209;-69
2022/10/27 00:50:44;;;;;;;12.13;3.75;;;;;;;;;;5122120;28;20191;-69
2022/10/27 00:53:10;;;;;;;8.27;4.15;;;;;;;;;;5122290;28;20217;-69
2022/10/27 00:55:39;;;;;;;9.32;4.10;;;;;;;;;;5122673;28;20202;-69
2022/10/27 00:58:06;;;;;;;20.30;3.80;;;;;;;;;;5122201;28;20240;-69
2022/10/27 01:00:34;;;;;;;8.45;4.07;;;;;;;;;;5122229;28;20541;-69
2022/10/27 01:03:00;;;;;;;11.45;4.13;;;;;;;;;;5122276;28;20203;-69
2022/10/27 01:05:33;;;;;;;8.32;3.88;;;;;;;;;;5122082;28;20194;-68
2022/10/27 01:08:00;;;;;;;13.40;4.22;;;;;;;;;;5121339;28;20291;-68
2022/10/27 01:10:27;;;;;;;5.97;3.80;;;;;;;;;;5122320;28;20198;-68
2022/10/27 01:12:53;;;;;;;8.65;3.95;;;;;;;;;;5122174;28;20210;-68
2022/10/27 01:15:20;;;;;;;9.60;3.58;;;;;;;;;;5121977;28;20224;-68
2022/10/27 01:17:50;;;;;;;10.40;3.63;;;;;;;;;;5121808;28;20385;-70
2022/10/27 01:20:31;;;;;;;8.00;3.90;;;;;;;;;;5121864;28;20218;-69
2022/10/27 01:23:01;;;;;;;8.20;3.63;;;;;;;;;;5122058;28;20195;-69
2022/10/27 01:25:41;;;;;;;10.15;3.95;;;;;;;;;;5122461;28;20504;-69
2022/10/27 01:28:25;;;;;;;6.80;4.18;;;;;;;;;;5121746;28;20222;-69
2022/10/27 01:31:00;;;;;;;9.00;3.90;;;;;;;;;;5123839;28;20214;-69
2022/10/27 01:33:30;;;;;;;8.73;3.88;;;;;;;;;;5125939;28;20195;-69
2022/10/27 01:35:59;;;;;;;8.00;4.15;;;;;;;;;;5125959;28;20493;-69
2022/10/27 01:38:28;;;;;;;7.55;4.20;;;;;;;;;;5125425;28;20240;-69
2022/10/27 01:40:56;;;;;;;11.07;4.47;;;;;;;;;;5125738;28;20219;-68
2022/10/27 01:43:24;;;;;;;11.02;4.85;;;;;;;;;;5125457;28;20191;-68
2022/10/27 01:45:51;;;;;;;7.32;5.00;;;;;;;;;;5125786;28;20416;-68
2022/10/27 01:48:19;;;;;;;14.88;4.47;;;;;;;;;;5125271;28;20209;-68
2022/10/27 01:50:45;;;;;;;6.68;4.53;;;;;;;;;;5125400;28;20228;-68
2022/10/27 01:53:12;;;;;;;5.97;4.25;;;;;;;;;;5125409;28;20203;-68
2022/10/27 01:55:44;;;;;;;9.60;4.13;;;;;;;;;;5125240;28;20195;-68
2022/10/27 01:58:21;;;;;;;10.07;4.40;;;;;;;;;;5125339;28;20256;-68
2022/10/27 02:00:54;;;;;;;9.10;4.65;;;;;;;;;;5125102;28;20215;-68
2022/10/27 02:03:25;;;;;;;4.70;3.97;;;;;;;;;;5125340;28;20202;-68
2022/10/27 02:05:53;;;;;;;7.43;4.53;;;;;;;;;;5125574;28;20478;-68
2022/10/27 02:08:22;;;;;;;9.30;4.32;;;;;;;;;;5124876;27;20529;-68
2022/10/27 02:10:50;;;;;;;11.38;4.40;;;;;;;;;;5125284;28;20393;-68
2022/10/27 02:13:17;;;;;;;7.13;4.25;;;;;;;;;;5125521;28;20195;-69
2022/10/27 02:15:47;;;;;;;6.07;4.30;;;;;;;;;;5125294;28;20233;-69
2022/10/27 02:18:16;;;;;;;6.40;4.40;;;;;;;;;;5125055;28;20203;-69
2022/10/27 02:20:45;;;;;;;9.75;4.88;;;;;;;;;;5124702;28;20215;-68
2022/10/27 02:23:14;;;;;;;9.05;4.30;;;;;;;;;;5124994;28;20202;-68
2022/10/27 02:25:44;;;;;;;8.10;4.90;;;;;;;;;;5124876;28;20199;-68
2022/10/27 02:28:13;;;;;;;9.05;4.88;;;;;;;;;;5124508;27;20410;-68
2022/10/27 02:30:41;;;;;;;12.98;4.88;;;;;;;;;;5124712;28;20195;-68
2022/10/27 02:33:07;;;;;;;9.70;4.97;;;;;;;;;;5124474;28;20195;-68
2022/10/27 02:35:33;;;;;;;10.27;5.32;;;;;;;;;;5124451;28;20222;-68
2022/10/27 02:38:01;;;;;;;9.18;5.80;;;;;;;;;;5124075;28;20199;-68
2022/10/27 02:40:27;;;;;;;6.28;4.47;;;;;;;;;;5123950;28;20201;-68
2022/10/27 02:42:55;;;;;;;10.68;4.95;;;;;;;;;;5124471;28;20434;-68
2022/10/27 02:45:21;;;;;;;10.30;4.50;;;;;;;;;;5124459;28;20195;-68
2022/10/27 02:47:47;;;;;;;5.15;4.10;;;;;;;;;;5124007;28;20194;-68
2022/10/27 02:50:14;;;;;;;6.95;4.70;;;;;;;;;;5124422;28;20232;-68
2022/10/27 02:52:42;;;;;;;6.32;4.47;;;;;;;;;;5124537;28;20473;-68
2022/10/27 02:55:10;;;;;;;7.72;4.40;;;;;;;;;;5124447;28;20195;-68
2022/10/27 02:57:36;;;;;;;10.32;4.90;;;;;;;;;;5124050;28;20201;-68
2022/10/27 03:00:02;;;;;;;11.38;4.75;;;;;;;;;;5124064;27;20212;-68
2022/10/27 03:02:29;;;;;;;7.00;4.25;;;;;;;;;;5123847;28;20391;-68
2022/10/27 03:04:56;;;;;;;6.15;4.00;;;;;;;;;;5124175;28;20432;-68
2022/10/27 03:07:23;;;;;;;6.15;4.38;;;;;;;;;;5124016;28;20195;-68
2022/10/27 03:09:49;;;;;;;10.40;4.20;;;;;;;;;;5123733;28;20420;-68
2022/10/27 03:12:17;;;;;;;8.48;4.32;;;;;;;;;;5123918;28;20199;-69
2022/10/27 03:14:43;;;;;;;9.07;4.20;;;;;;;;;;5123759;28;20195;-69
2022/10/27 03:17:09;;;;;;;9.05;4.00;;;;;;;;;;5123706;28;20211;-68
2022/10/27 03:19:36;;;;;;;5.97;5.03;;;;;;;;;;5123370;28;20209;-69
2022/10/27 03:22:02;;;;;;;9.48;5.45;;;;;;;;;;5123682;28;20223;-69
2022/10/27 03:24:28;;;;;;;12.90;6.10;;;;;;;;;;5123685;28;20195;-69
2022/10/27 03:26:54;;;;;;;17.30;6.60;;;;;;;;;;5123614;28;20199;-68
2022/10/27 03:29:22;;;;;;;11.98;5.22;;;;;;;;;;5123093;28;20261;-68
2022/10/27 03:31:48;;;;;;;8.77;5.00;;;;;;;;;;5123310;28;20199;-68
2022/10/27 03:34:15;;;;;;;10.38;5.45;;;;;;;;;;5123567;28;20230;-68
2022/10/27 03:36:41;;;;;;;14.02;5.60;;;;;;;;;;5123450;28;20424;-68
2022/10/27 03:39:07;;;;;;;12.27;5.25;;;;;;;;;;5123348;28;20206;-68
2022/10/27 03:41:33;;;;;;;7.93;5.38;;;;;;;;;;5123182;28;20222;-68
2022/10/27 03:44:00;;;;;;;6.32;5.47;;;;;;;;;;5123116;28;20201;-68
2022/10/27 03:46:27;;;;;;;12.40;5.28;;;;;;;;;;5123374;28;20194;-68
2022/10/27 03:48:54;;;;;;;11.35;5.32;;;;;;;;;;5123086;28;20198;-68
2022/10/27 03:51:20;;;;;;;12.90;5.65;;;;;;;;;;5123175;28;20198;-68
2022/10/27 03:53:46;;;;;;;11.73;5.38;;;;;;;;;;5122256;28;20230;-69
2022/10/27 03:56:13;;;;;;;8.60;5.50;;;;;;;;;;5122924;28;20202;-69
2022/10/27 03:58:39;;;;;;;12.57;5.15;;;;;;;;;;5122674;28;20587;-69
2022/10/27 04:01:06;;;;;;;10.73;5.53;;;;;;;;;;5122750;28;20195;-68
2022/10/27 04:03:33;;;;;;;11.02;5.30;;;;;;;;;;5123187;28;20501;-68
2022/10/27 04:05:59;;;;;;;14.38;6.53;;;;;;;;;;5122999;28;20195;-68
2022/10/27 04:08:26;;;;;;;16.00;6.30;;;;;;;;;;5122724;28;20232;-68
2022/10/27 04:10:52;;;;;;;13.48;7.03;;;;;;;;;;5122679;28;20202;-68
2022/10/27 04:13:18;;;;;;;12.23;6.82;;;;;;;;;;5122634;28;20376;-68
2022/10/27 04:15:45;;;;;;;13.60;6.65;;;;;;;;;;5122911;28;20240;-68
2022/10/27 04:18:11;;;;;;;7.13;5.45;;;;;;;;;;5122511;28;20195;-68
2022/10/27 04:20:38;;;;;;;9.75;5.35;;;;;;;;;;5122777;28;20195;-68
2022/10/27 04:23:05;;;;;;;7.38;4.50;;;;;;;;;;5122503;28;20226;-68
2022/10/27 04:25:31;;;;;;;5.80;5.18;;;;;;;;;;5122630;28;20491;-68
2022/10/27 04:28:00;;;;;;;7.70;4.63;;;;;;;;;;5122168;27;20417;-68
2022/10/27 04:30:26;;;;;;;7.78;5.20;;;;;;;;;;5122647;28;20514;-68
2022/10/27 04:32:53;;;;;;;20.50;5.57;;;;;;;;;;5122590;28;20489;-68
2022/10/27 04:35:19;;;;;;;7.93;5.93;;;;;;;;;;5122481;28;20209;-68
2022/10/27 04:37:46;;;;;;;7.53;5.80;;;;;;;;;;5122083;28;20234;-69
2022/10/27 04:40:13;;;;;;;9.73;5.75;;;;;;;;;;5122338;28;20424;-68
2022/10/27 04:42:43;;;;;;;27.70;6.30;;;;;;;;;;5122086;28;20418;-68
2022/10/27 04:45:10;;;;;;;17.15;5.80;;;;;;;;;;5122429;28;20397;-68
2022/10/27 04:47:36;;;;;;;7.00;5.22;;;;;;;;;;5122309;28;20498;-68
2022/10/27 04:50:03;;;;;;;7.65;5.28;;;;;;;;;;5122398;28;20507;-68
2022/10/27 04:52:29;;;;;;;7.18;4.93;;;;;;;;;;5122327;28;20513;-68
2022/10/27 04:54:56;;;;;;;8.27;5.03;;;;;;;;;;5122215;28;20388;-68
2022/10/27 04:57:23;;;;;;;7.80;5.18;;;;;;;;;;5122206;28;20202;-68
2022/10/27 04:59:49;;;;;;;7.63;5.47;;;;;;;;;;5122080;28;20195;-69
2022/10/27 05:02:15;;;;;;;6.03;5.43;;;;;;;;;;5122120;28;20257;-69
2022/10/27 05:04:42;;;;;;;7.40;4.70;;;;;;;;;;5124203;28;20198;-69
2022/10/27 05:07:08;;;;;;;10.55;4.88;;;;;;;;;;5126237;28;20199;-69
2022/10/27 05:09:34;;;;;;;9.50;5.93;;;;;;;;;;5126040;28;20203;-69
2022/10/27 05:12:02;;;;;;;13.35;5.75;;;;;;;;;;5126004;27;20404;-69
2022/10/27 05:14:28;;;;;;;6.82;5.07;;;;;;;;;;5125842;28;20195;-69
2022/10/27 05:16:54;;;;;;;5.45;4.95;;;;;;;;;;5125919;28;20240;-69
2022/10/27 05:19:21;;;;;;;9.98;5.05;;;;;;;;;;5125615;27;20203;-69
2022/10/27 05:21:47;;;;;;;13.82;4.75;;;;;;;;;;5125658;28;20454;-69
2022/10/27 05:24:13;;;;;;;12.57;3.95;;;;;;;;;;5125536;28;20386;-69
2022/10/27 05:26:40;;;;;;;6.70;4.50;;;;;;;;;;5125579;28;20371;-69
2022/10/27 05:29:07;;;;;;;9.52;4.38;;;;;;;;;;5125322;28;20215;-68
2022/10/27 05:31:34;;;;;;;9.13;4.40;;;;;;;;;;5125589;28;20218;-68
2022/10/27 05:34:00;;;;;;;7.28;4.38;;;;;;;;;;5125412;28;20202;-68
2022/10/27 05:36:26;;;;;;;4.40;4.00;;;;;;;;;;5125307;28;20199;-68
2022/10/27 05:38:52;;;;;;;4.40;4.00;;;;;;;;;;5125014;28;20207;-68
2022/10/27 05:41:19;;;;;;;4.75;4.32;;;;;;;;;;5125331;28;20195;-71
2022/10/27 05:43:45;;;;;;;5.38;4.28;;;;;;;;;;5125160;28;20230;-71
2022/10/27 05:46:13;;;;;;;5.45;4.47;;;;;;;;;;5125021;28;20225;-71
2022/10/27 05:48:39;;;;;;;8.55;4.93;;;;;;;;;;5125662;28;20199;-71
2022/10/27 05:51:05;;;;;;;12.63;5.20;;;;;;;;;;5125476;28;20195;-72
2022/10/27 05:53:31;;;;;;;9.77;5.20;;;;;;;;;;5125691;28;20199;-72
2022/10/27 05:55:58;;;;;;;12.15;5.13;;;;;;;;;;5125636;28;20248;-72
2022/10/27 05:58:24;;;;;;;6.22;5.50;;;;;;;;;;5125480;28;20195;-72
2022/10/27 06:00:50;;;;;;;10.20;5.80;;;;;;;;;;5125355;27;20195;-72
2022/10/27 06:03:20;;;;;;;6.28;5.22;;;;;;;;;;5125244;28;20211;-72
2022/10/27 06:05:47;;;;;;;6.22;4.78;;;;;;;;;;5125268;28;20195;-72
2022/10/27 06:08:13;;;;;;;7.95;4.47;;;;;;;;;;5125143;28;20206;-72
2022/10/27 06:10:40;;;;;;;8.85;4.97;;;;;;;;;;5125347;28;20395;-72
2022/10/27 06:13:07;;;;;;;7.22;4.75;;;;;;;;;;5125088;28;20195;-72
2022/10/27 06:15:33;;;;;;;7.13;4.32;;;;;;;;;;5123712;28;20199;-72
2022/10/27 06:18:00;;;;;;;12.38;4.95;;;;;;;;;;5124545;28;20199;-72
2022/10/27 06:20:27;;;;;;;6.90;4.93;;;;;;;;;;5124524;28;20222;-72
2022/10/27 06:22:54;;;;;;;5.68;4.47;;;;;;;;;;5119820;28;20223;-72
2022/10/27 06:25:20;;;;;;;10.60;4.65;;;;;;;;;;5111322;28;20369;-72
2022/10/27 06:27:46;;;;;;;7.10;4.22;;;;;;;;;;5118112;27;20231;-71
2022/10/27 06:30:13;;;;;;;6.68;4.32;;;;;;;;;;5118321;28;20199;-67
2022/10/27 06:32:39;;;;;;;6.80;4.20;;;;;;;;;;5116967;28;20214;-58
2022/10/27 06:35:06;;;;;;;5.00;4.00;;;;;;;;;;5117505;28;20760;-58
2022/10/27 06:37:36;;;;;;;4.32;3.88;;;;;;;;;;5113306;28;20229;-58
2022/10/27 06:40:03;;;;;;;5.03;4.13;;;;;;;;;;5109193;27;20747;-57
2022/10/27 06:42:29;;;;;;;6.22;4.68;;;;;;;;;;5116601;28;20229;-58
2022/10/27 06:44:56;;;;;;;4.95;4.55;;;;;;;;;;5116700;27;20218;-57
2022/10/27 06:47:22;;;;;;;5.25;4.75;;;;;;;;;;5116528;28;20211;-57
2022/10/27 06:49:48;;;;;;;5.88;4.97;;;;;;;;;;5115594;28;20218;-58
2022/10/27 06:52:14;;;;;;;6.57;5.85;;;;;;;;;;5116644;28;20214;-58
2022/10/27 06:54:42;;;;;;;7.90;5.85;;;;;;;;;;5115518;28;20217;-57
2022/10/27 06:57:08;;;;;;;14.10;5.95;;;;;;;;;;5115835;28;20218;-57
2022/10/27 06:59:35;;;;;;;7.50;6.70;;;;;;;;;;5115993;28;20207;-58
2022/10/27 07:02:02;;;;;;;9.68;6.10;;;;;;;;;;5115451;28;20506;-57
2022/10/27 07:04:28;;;;;;;12.07;7.28;;;;;;;;;;5115525;28;20233;-58
2022/10/27 07:06:54;;;;;;;9.05;6.65;;;;;;;;;;5114901;28;20215;-60
2022/10/27 07:09:21;;;;;;;8.10;6.40;;;;;;;;;;5116383;28;20211;-58
2022/10/27 07:11:48;;;;;;;9.00;7.45;;;;;;;;;;5115954;28;20211;-58
2022/10/27 07:14:14;;;;;;;10.13;6.90;;;;;;;;;;5115876;28;20503;-58
2022/10/27 07:16:41;;;;;;;9.60;6.38;;;;;;;;;;5115806;28;20522;-58
2022/10/27 07:19:07;;;;;;;7.65;6.60;;;;;;;;;;5116410;28;20514;-58
2022/10/27 07:21:33;;;;;;;9.38;7.28;;;;;;;;;;5116240;28;20567;-58
2022/10/27 07:24:00;;;;;;;6.60;6.00;;;;;;;;;;5116269;28;20478;-57
2022/10/27 07:26:26;;;;;;;7.30;6.03;;;;;;;;;;5115627;28;20625;-58
2022/10/27 07:28:54;;;;;;;12.75;6.30;;;;;;;;;;5115509;28;20413;-58
2022/10/27 07:31:20;;;;;;;10.43;6.13;;;;;;;;;;5115319;27;20238;-58
2022/10/27 07:33:46;;;;;;;7.97;5.60;;;;;;;;;;5116249;28;20237;-58
2022/10/27 07:36:13;;;;;;;9.50;5.88;;;;;;;;;;5115580;28;20601;-58
2022/10/27 07:38:39;;;;;;;8.98;6.10;;;;;;;;;;5115425;28;20225;-58
2022/10/27 07:41:05;;;;;;;11.82;5.60;;;;;;;;;;5116121;28;20215;-58
2022/10/27 07:43:32;;;;;;;6.30;5.65;;;;;;;;;;5114131;28;20552;-58
2022/10/27 07:45:59;;;;;;;5.82;5.32;;;;;;;;;;5115444;28;20218;-60
2022/10/27 07:48:26;;;;;;;7.55;5.75;;;;;;;;;;5111259;28;20244;-57
2022/10/27 07:50:54;;;;;;;7.53;6.28;;;;;;;;;;5115337;28;20423;-60
2022/10/27 07:53:20;;;;;;;6.22;5.65;;;;;;;;;;5115516;28;20442;-57
2022/10/27 07:55:46;;;;;;;6.47;5.88;;;;;;;;;;5115369;28;20217;-58
2022/10/27 07:58:13;;;;;;;9.50;6.20;;;;;;;;;;5115024;28;20230;-59
2022/10/27 08:00:40;;;;;;;6.43;5.80;;;;;;;;;;5115816;28;20214;-59
2022/10/27 08:03:10;;;;;;;6.15;5.65;;;;;;;;;;5115979;28;20231;-59
2022/10/27 08:05:37;;;;;;;9.38;5.75;;;;;;;;;;5115773;28;20213;-59
2022/10/27 08:08:04;;;;;;;6.80;5.80;;;;;;;;;;5115476;28;20215;-60
2022/10/27 08:10:31;;;;;;;8.07;6.03;;;;;;;;;;5116052;28;20211;-59
2022/10/27 08:12:57;;;;;;;6.03;5.40;;;;;;;;;;5116356;28;20214;-59
2022/10/27 08:15:24;;;;;;;6.45;5.80;;;;;;;;;;5115885;28;20218;-59
2022/10/27 08:17:53;;;;;;;5.07;4.65;;;;;;;;;;5115631;28;20211;-59
2022/10/27 08:20:22;;;;;;;5.57;4.38;;;;;;;;;;5115441;28;20214;-59
2022/10/27 08:22:54;;;;;;;4.57;4.25;;;;;;;;;;5116468;27;20922;-59
2022/10/27 08:25:20;;;;;;;5.25;4.72;;;;;;;;;;5114161;28;20213;-56
2022/10/27 08:27:46;;;;;;;8.73;6.72;;;;;;;;;;5115367;28;20554;-57
2022/10/27 08:30:12;;;;;;;10.48;6.80;;;;;;;;;;5115990;28;20448;-57
2022/10/27 08:32:39;;;;;;;14.50;8.10;;;;;;;;;;5115895;28;20213;-57
2022/10/27 08:35:05;;;;;;;22.33;11.23;;;;;;;;;;5114879;28;20207;-57
2022/10/27 08:37:33;;;;;;;18.88;11.10;;;;;;;;;;5114802;28;20223;-58
2022/10/27 08:39:59;;;;;;;26.20;12.60;;;;;;;;;;5115376;28;20207;-57
2022/10/27 08:42:32;;;;;;;19.23;11.07;;;;;;;;;;5115996;28;20551;-56
2022/10/27 08:45:00;;;;;;;22.23;12.70;;;;;;;;;;5115138;28;20230;-58
2022/10/27 08:47:26;;;;;;;18.77;11.77;;;;;;;;;;5115048;28;20553;-58
2022/10/27 08:49:55;;;;;;;21.02;12.85;;;;;;;;;;5115063;28;20475;-59
2022/10/27 08:52:25;;;;;;;21.92;12.52;;;;;;;;;;5115746;28;20218;-58
2022/10/27 08:54:54;;;;;;;21.23;13.40;;;;;;;;;;5115326;28;20214;-58
2022/10/27 08:57:24;;;;;;;22.00;14.05;;;;;;;;;;5114645;28;20530;-58
2022/10/27 08:59:51;;;;;;;22.02;12.75;;;;;;;;;;5114450;28;20210;-59
2022/10/27 09:02:24;;;;;;;17.73;12.27;;;;;;;;;;5114212;28;20225;-58
2022/10/27 09:04:57;;;;;;;19.17;12.07;;;;;;;;;;5114837;28;20230;-58
2022/10/27 09:07:26;;;;;;;16.60;10.77;;;;;;;;;;5114880;28;20418;-57
2022/10/27 09:09:54;;;;;;;13.30;10.25;;;;;;;;;;5114374;28;20203;-57
2022/10/27 09:12:31;;;;;;;20.02;11.45;;;;;;;;;;5114918;28;20210;-57
2022/10/27 09:15:06;;;;;;;16.25;9.73;;;;;;;;;;5114030;28;20213;-57
2022/10/27 09:17:35;;;;;;;18.42;9.50;;;;;;;;;;5114288;28;20211;-57
2022/10/27 09:20:04;;;;;;;13.30;8.95;;;;;;;;;;5114996;28;20214;-57
2022/10/27 09:22:33;;;;;;;15.02;10.95;;;;;;;;;;5114884;28;20409;-58
2022/10/27 09:25:02;;;;;;;15.50;9.68;;;;;;;;;;5114808;28;20242;-58
2022/10/27 09:27:29;;;;;;;11.15;8.35;;;;;;;;;;5114613;28;20242;-59
2022/10/27 09:29:57;;;;;;;11.63;7.93;;;;;;;;;;5114933;28;20210;-58
2022/10/27 09:32:25;;;;;;;19.67;8.63;;;;;;;;;;5114536;28;20268;-58
2022/10/27 09:34:53;;;;;;;18.58;10.15;;;;;;;;;;5113651;28;20274;-57
2022/10/27 09:37:20;;;;;;;16.17;7.50;;;;;;;;;;5112471;28;20244;-58
2022/10/27 09:39:48;;;;;;;12.23;8.27;;;;;;;;;;5107744;28;20207;-58
2022/10/27 09:42:16;;;;;;;14.82;9.60;;;;;;;;;;5107043;28;20557;-58
2022/10/27 09:44:45;;;;;;;12.00;7.18;;;;;;;;;;5112396;28;20455;-58
2022/10/27 09:47:11;;;;;;;17.75;10.15;;;;;;;;;;5114641;28;20234;-59
2022/10/27 09:49:38;;;;;;;12.48;7.32;;;;;;;;;;5114209;28;20276;-58
2022/10/27 09:52:10;;;;;;;13.07;6.68;;;;;;;;;;5116779;28;20215;-57
2022/10/27 09:54:38;;;;;;;12.07;6.45;;;;;;;;;;5117275;28;20207;-58
2022/10/27 09:57:05;;;;;;;18.38;7.43;;;;;;;;;;5117285;27;20203;-58
2022/10/27 09:59:35;;;;;;;9.35;7.32;;;;;;;;;;5117481;28;20214;-57
2022/10/27 10:02:04;;;;;;;12.95;6.97;;;;;;;;;;5117336;28;20431;-58
2022/10/27 10:04:31;;;;;;;12.15;6.32;;;;;;;;;;5117877;28;20227;-61
2022/10/27 10:06:58;;;;;;;10.90;5.40;;;;;;;;;;5117813;28;20210;-61
2022/10/27 10:09:26;;;;;;;14.85;5.88;;;;;;;;;;5117730;28;20211;-61
2022/10/27 10:12:11;;;;;;;8.32;5.55;;;;;;;;;;5118060;28;20215;-61
2022/10/27 10:14:38;;;;;;;10.18;5.25;;;;;;;;;;5118826;28;20211;-61
2022/10/27 10:17:05;;;;;;;6.53;4.22;;;;;;;;;;5118055;28;20225;-61
2022/10/27 10:19:31;;;;;;;10.80;4.20;;;;;;;;;;5117693;28;20207;-58
2022/10/27 10:21:59;;;;;;;10.45;4.85;;;;;;;;;;5117656;28;20403;-58
2022/10/27 10:24:27;;;;;;;12.00;4.85;;;;;;;;;;5116863;27;20241;-58
2022/10/27 10:26:54;;;;;;;13.25;4.93;;;;;;;;;;5116867;27;20521;-58
2022/10/27 10:29:27;;;;;;;13.07;4.95;;;;;;;;;;5117671;28;20227;-59
2022/10/27 10:32:06;;;;;;;11.52;4.43;;;;;;;;;;5117929;28;20214;-58
2022/10/27 10:34:33;;;;;;;9.18;3.97;;;;;;;;;;5117335;27;20207;-58
2022/10/27 10:36:59;;;;;;;10.98;4.53;;;;;;;;;;5117159;28;20207;-57
2022/10/27 10:39:27;;;;;;;6.95;4.05;;;;;;;;;;5117832;28;20227;-59
2022/10/27 10:42:12;;;;;;;8.27;4.47;;;;;;;;;;5117503;28;20378;-58
2022/10/27 10:44:38;;;;;;;10.50;4.30;;;;;;;;;;5116800;28;20561;-59
2022/10/27 10:47:06;;;;;;;10.85;4.88;;;;;;;;;;5116248;28;20401;-58
2022/10/27 10:49:34;;;;;;;7.20;4.15;;;;;;;;;;5117088;28;20210;-58
2022/10/27 10:52:01;;;;;;;13.38;4.80;;;;;;;;;;5117585;27;20214;-58
2022/10/27 10:54:31;;;;;;;17.73;4.57;;;;;;;;;;5117046;28;20217;-58
2022/10/27 10:56:57;;;;;;;14.93;4.30;;;;;;;;;;5117482;28;20211;-59
2022/10/27 10:59:26;;;;;;;7.00;3.75;;;;;;;;;;5117587;28;20215;-58
2022/10/27 11:01:53;;;;;;;10.65;6.25;;;;;;;;;;5115248;28;20424;-58
2022/10/27 11:04:22;;;;;;;9.55;6.47;;;;;;;;;;5117125;27;20499;-58
2022/10/27 11:06:58;;;;;;;11.93;4.35;;;;;;;;;;5116284;28;20450;-58
2022/10/27 11:09:24;;;;;;;14.45;7.22;;;;;;;;;;5116933;28;20217;-58
2022/10/27 11:11:51;;;;;;;11.02;4.47;;;;;;;;;;5117152;28;20234;-59
2022/10/27 11:14:18;;;;;;;9.25;3.78;;;;;;;;;;5116777;27;20427;-58
2022/10/27 11:16:49;;;;;;;10.07;4.18;;;;;;;;;;5116158;28;20248;-58
2022/10/27 11:19:17;;;;;;;17.17;5.47;;;;;;;;;;5116507;28;20221;-59
2022/10/27 11:21:49;;;;;;;16.38;4.57;;;;;;;;;;5116702;28;20529;-58
2022/10/27 11:24:18;;;;;;;12.73;7.38;;;;;;;;;;5116520;28;20223;-57
2022/10/27 11:26:50;;;;;;;16.55;9.95;;;;;;;;;;5115599;28;20211;-58
2022/10/27 11:29:18;;;;;;;8.75;4.07;;;;;;;;;;5098859;28;20464;-59
2022/10/27 11:31:49;;;;;;;10.00;4.53;;;;;;;;;;5116729;28;20210;-58
2022/10/27 11:34:18;;;;;;;9.82;4.88;;;;;;;;;;5110274;28;20206;-59
2022/10/27 11:36:48;;;;;;;8.30;4.15;;;;;;;;;;5114470;28;20211;-58
2022/10/27 11:39:17;;;;;;;16.00;4.90;;;;;;;;;;5115833;28;20556;-58
2022/10/27 11:41:46;;;;;;;13.25;4.70;;;;;;;;;;5115702;28;20214;-58
2022/10/27 11:44:18;;;;;;;14.18;4.10;;;;;;;;;;5115989;28;20461;-59
2022/10/27 11:46:46;;;;;;;9.57;4.30;;;;;;;;;;5115699;28;20212;-58
2022/10/27 11:49:16;;;;;;;10.65;4.30;;;;;;;;;;5115164;27;21029;-58
2022/10/27 11:51:45;;;;;;;11.77;3.72;;;;;;;;;;5115609;28;20386;-58
2022/10/27 11:54:12;;;;;;;13.20;4.22;;;;;;;;;;5115381;28;20216;-58
2022/10/27 11:56:47;;;;;;;10.70;4.60;;;;;;;;;;5115957;28;20521;-59
2022/10/27 11:59:19;;;;;;;9.00;3.78;;;;;;;;;;5109546;28;20214;-59
2022/10/27 12:01:48;;;;;;;8.93;3.65;;;;;;;;;;5115945;28;20210;-59
2022/10/27 12:04:21;;;;;;;9.50;4.38;;;;;;;;;;5115236;28;20561;-58
2022/10/27 12:06:49;;;;;;;10.27;3.78;;;;;;;;;;5115056;28;20218;-58
2022/10/27 12:09:21;;;;;;;8.30;4.20;;;;;;;;;;5115204;28;20576;-58
2022/10/27 12:11:51;;;;;;;12.95;4.00;;;;;;;;;;5115426;28;20210;-58
2022/10/27 12:14:22;;;;;;;8.80;3.90;;;;;;;;;;5115060;28;20201;-61
2022/10/27 12:16:51;;;;;;;8.98;3.58;;;;;;;;;;5115435;28;20206;-61
2022/10/27 12:19:19;;;;;;;11.70;3.88;;;;;;;;;;5115313;28;20213;-61
2022/10/27 12:21:47;;;;;;;7.43;3.60;;;;;;;;;;5116239;27;20202;-61
2022/10/27 12:24:17;;;;;;;7.00;3.38;;;;;;;;;;5115850;28;20226;-61
2022/10/27 12:26:46;;;;;;;10.60;3.25;;;;;;;;;;5115912;28;20457;-61
2022/10/27 12:29:13;;;;;;;9.88;3.58;;;;;;;;;;5116159;28;20234;-61
2022/10/27 12:31:41;;;;;;;8.50;3.47;;;;;;;;;;5116238;28;20456;-62
2022/10/27 12:34:09;;;;;;;9.07;3.28;;;;;;;;;;5116107;28;20202;-61
2022/10/27 12:36:38;;;;;;;8.15;3.60;;;;;;;;;;5115416;28;20210;-62
2022/10/27 12:39:11;;;;;;;7.85;2.65;;;;;;;;;;5115663;28;20218;-61
2022/10/27 12:41:42;;;;;;;6.03;2.63;;;;;;;;;;5115668;28;20206;-61
2022/10/27 12:44:14;;;;;;;10.52;2.88;;;;;;;;;;5115411;28;20230;-63
2022/10/27 12:46:47;;;;;;;7.68;2.90;;;;;;;;;;5114481;28;20210;-61
2022/10/27 12:49:20;;;;;;;9.95;2.60;;;;;;;;;;5115291;28;20415;-62
2022/10/27 12:51:51;;;;;;;12.30;2.67;;;;;;;;;;5115692;28;20207;-61
2022/10/27 12:54:27;;;;;;;6.93;2.53;;;;;;;;;;5115297;28;20210;-62
2022/10/27 12:56:57;;;;;;;7.55;2.70;;;;;;;;;;5114786;28;20218;-62
2022/10/27 12:59:28;;;;;;;7.82;2.88;;;;;;;;;;5115353;28;20206;-62
2022/10/27 13:01:56;;;;;;;7.13;2.80;;;;;;;;;;5115352;28;20461;-62
2022/10/27 13:04:31;;;;;;;4.70;2.42;;;;;;;;;;5115050;28;20230;-62
2022/10/27 13:07:07;;;;;;;8.75;2.38;;;;;;;;;;5114930;28;20213;-62
2022/10/27 13:09:56;;;;;;;6.68;2.63;;;;;;;;;;5114515;28;20446;-71
2022/10/27 13:12:41;;;;;;;8.80;2.78;;;;;;;;;;5115366;28;20210;-71
2022/10/27 13:15:26;;;;;;;11.73;3.03;;;;;;;;;;5105419;28;20211;-72
2022/10/27 13:17:57;;;;;;;10.55;2.58;;;;;;;;;;5113159;28;20229;-73
2022/10/27 13:20:33;;;;;;;9.43;2.80;;;;;;;;;;5114829;28;20210;-72
2022/10/27 13:23:02;;;;;;;8.63;2.65;;;;;;;;;;5116391;28;20206;-72
2022/10/27 13:25:31;;;;;;;13.23;3.10;;;;;;;;;;5115895;28;20316;-73
2022/10/27 13:28:00;;;;;;;9.75;2.88;;;;;;;;;;5119357;28;20235;-73
2022/10/27 13:30:28;;;;;;;18.38;2.63;;;;;;;;;;5119307;28;20230;-73
2022/10/27 13:32:56;;;;;;;7.60;2.40;;;;;;;;;;5119809;28;20214;-73
2022/10/27 13:35:33;;;;;;;12.05;2.90;;;;;;;;;;5118753;27;20210;-73
2022/10/27 13:38:16;;;;;;;9.52;3.00;;;;;;;;;;5110846;28;20639;-73
2022/10/27 13:40:42;;;;;;;5.00;2.30;;;;;;;;;;5117430;28;20218;-60
2022/10/27 13:43:28;;;;;;;7.55;2.65;;;;;;;;;;5118446;28;20475;-60
2022/10/27 13:45:55;;;;;;;10.18;2.70;;;;;;;;;;5117258;27;20240;-59
2022/10/27 13:48:33;;;;;;;9.48;2.65;;;;;;;;;;5117334;28;20211;-59
2022/10/27 13:51:19;;;;;;;14.98;3.03;;;;;;;;;;5117635;28;20299;-63
2022/10/27 13:53:45;;;;;;;11.75;2.85;;;;;;;;;;5117734;28;20214;-59
2022/10/27 13:56:26;;;;;;;8.13;3.10;;;;;;;;;;5116968;28;20210;-59
2022/10/27 13:58:56;;;;;;;8.38;2.63;;;;;;;;;;5117894;28;20207;-59
2022/10/27 14:01:24;;;;;;;14.45;2.63;;;;;;;;;;5117436;28;20210;-59
2022/10/27 14:04:15;;;;;;;6.45;2.60;;;;;;;;;;5118640;28;20217;-59
2022/10/27 14:06:42;;;;;;;11.07;2.80;;;;;;;;;;5112609;28;20394;-58
2022/10/27 14:09:18;;;;;;;10.57;2.83;;;;;;;;;;5117020;28;20234;-58
2022/10/27 14:11:46;;;;;;;11.75;3.17;;;;;;;;;;5117715;28;20217;-59
2022/10/27 14:14:17;;;;;;;5.93;2.90;;;;;;;;;;5117943;28;20217;-58
2022/10/27 14:16:43;;;;;;;8.00;3.03;;;;;;;;;;5111699;28;20212;-59
2022/10/27 14:19:14;;;;;;;9.00;3.13;;;;;;;;;;5108583;28;20202;-59
2022/10/27 14:21:42;;;;;;;13.05;3.22;;;;;;;;;;5112655;27;20218;-60
2022/10/27 14:24:11;;;;;;;17.77;2.97;;;;;;;;;;5117275;28;20207;-59
2022/10/27 14:26:37;;;;;;;11.02;3.03;;;;;;;;;;5110198;27;20260;-58
2022/10/27 14:29:04;;;;;;;7.10;2.70;;;;;;;;;;5106022;28;20230;-59
2022/10/27 14:31:32;;;;;;;11.13;2.75;;;;;;;;;;5108575;28;20549;-59
2022/10/27 14:34:14;;;;;;;7.15;2.90;;;;;;;;;;5110334;28;20645;-59
2022/10/27 14:36:41;;;;;;;4.72;2.33;;;;;;;;;;5112106;28;20237;-59
2022/10/27 14:39:19;;;;;;;8.90;2.67;;;;;;;;;;5116134;28;20240;-60
2022/10/27 14:41:47;;;;;;;9.00;2.97;;;;;;;;;;5113143;28;20655;-59
2022/10/27 14:44:15;;;;;;;7.03;2.53;;;;;;;;;;5116909;28;20206;-59